sensor_id;sensor_type;location;lat;lon;timestamp;P1;durP1;ratioP1;P2;durP2;ratioP2
20727;SDS011;10525;50.154;8.198;2022-08-19T00:00:35;24.63;;;15.82;;
20727;SDS011;10525;50.154;8.198;2022-08-19T00:03:02;26.95;;;17.23;;
20727;SDS011;10525;50.154;8.198;2022-08-19T00:05:29;30.55;;;17.80;;
20727;SDS011;10525;50.154;8.198;2022-08-19T00:07:57;30.92;;;17.60;;
20727;SDS011;10525;50.154;8.198;2022-08-19T00:10:24;29.77;;;17.20;;
20727;SDS011;10525;50.154;8.198;2022-08-19T00:12:51;32.45;;;17.95;;
20727;SDS011;10525;50.154;8.198;2022-08-19T00:15:19;32.22;;;18.67;;
20727;SDS011;10525;50.154;8.198;2022-08-19T00:17:46;27.42;;;17.08;;
20727;SDS011;10525;50.154;8.198;2022-08-19T00:20:15;29.95;;;18.10;;
20727;SDS011;10525;50.154;8.198;2022-08-19T00:22:43;29.20;;;18.95;;
20727;SDS011;10525;50.154;8.198;2022-08-19T00:25:11;34.25;;;17.50;;
20727;SDS011;10525;50.154;8.198;2022-08-19T00:27:38;28.42;;;17.73;;
20727;SDS011;10525;50.154;8.198;2022-08-19T00:30:05;30.20;;;18.27;;
20727;SDS011;10525;50.154;8.198;2022-08-19T00:32:34;32.70;;;18.40;;
20727;SDS011;10525;50.154;8.198;2022-08-19T00:35:01;31.40;;;17.48;;
20727;SDS011;10525;50.154;8.198;2022-08-19T00:37:28;30.50;;;18.00;;
20727;SDS011;10525;50.154;8.198;2022-08-19T00:39:55;27.15;;;16.35;;
20727;SDS011;10525;50.154;8.198;2022-08-19T00:42:23;27.25;;;16.60;;
20727;SDS011;10525;50.154;8.198;2022-08-19T00:44:53;30.33;;;18.38;;
20727;SDS011;10525;50.154;8.198;2022-08-19T00:47:20;28.95;;;17.92;;
20727;SDS011;10525;50.154;8.198;2022-08-19T00:49:47;27.27;;;17.50;;
20727;SDS011;10525;50.154;8.198;2022-08-19T00:52:16;34.75;;;18.35;;
20727;SDS011;10525;50.154;8.198;2022-08-19T00:54:46;29.08;;;17.23;;
20727;SDS011;10525;50.154;8.198;2022-08-19T00:57:15;31.70;;;18.50;;
20727;SDS011;10525;50.154;8.198;2022-08-19T00:59:46;31.75;;;18.35;;
20727;SDS011;10525;50.154;8.198;2022-08-19T01:02:17;35.88;;;18.95;;
20727;SDS011;10525;50.154;8.198;2022-08-19T01:04:44;31.25;;;17.73;;
20727;SDS011;10525;50.154;8.198;2022-08-19T01:07:11;32.50;;;18.45;;
20727;SDS011;10525;50.154;8.198;2022-08-19T01:09:38;33.45;;;18.05;;
20727;SDS011;10525;50.154;8.198;2022-08-19T01:12:05;30.10;;;17.75;;
20727;SDS011;10525;50.154;8.198;2022-08-19T01:14:32;31.08;;;18.73;;
20727;SDS011;10525;50.154;8.198;2022-08-19T01:17:01;29.67;;;18.45;;
20727;SDS011;10525;50.154;8.198;2022-08-19T01:19:30;36.85;;;19.52;;
20727;SDS011;10525;50.154;8.198;2022-08-19T01:22:01;40.03;;;21.23;;
20727;SDS011;10525;50.154;8.198;2022-08-19T01:24:33;41.55;;;21.90;;
20727;SDS011;10525;50.154;8.198;2022-08-19T01:26:59;35.63;;;20.48;;
20727;SDS011;10525;50.154;8.198;2022-08-19T01:29:29;41.00;;;22.05;;
20727;SDS011;10525;50.154;8.198;2022-08-19T01:31:56;43.22;;;23.23;;
20727;SDS011;10525;50.154;8.198;2022-08-19T01:34:24;38.58;;;21.35;;
20727;SDS011;10525;50.154;8.198;2022-08-19T01:36:50;41.38;;;22.27;;
20727;SDS011;10525;50.154;8.198;2022-08-19T01:39:19;44.03;;;21.05;;
20727;SDS011;10525;50.154;8.198;2022-08-19T01:41:48;40.25;;;20.25;;
20727;SDS011;10525;50.154;8.198;2022-08-19T01:44:17;32.60;;;19.52;;
20727;SDS011;10525;50.154;8.198;2022-08-19T01:46:46;34.58;;;19.77;;
20727;SDS011;10525;50.154;8.198;2022-08-19T01:49:14;37.55;;;20.63;;
20727;SDS011;10525;50.154;8.198;2022-08-19T01:51:42;29.98;;;18.27;;
20727;SDS011;10525;50.154;8.198;2022-08-19T01:54:09;31.88;;;18.35;;
20727;SDS011;10525;50.154;8.198;2022-08-19T01:56:36;35.38;;;18.35;;
20727;SDS011;10525;50.154;8.198;2022-08-19T01:59:05;30.92;;;17.85;;
20727;SDS011;10525;50.154;8.198;2022-08-19T02:01:36;33.50;;;17.75;;
20727;SDS011;10525;50.154;8.198;2022-08-19T02:04:03;33.72;;;20.02;;
20727;SDS011;10525;50.154;8.198;2022-08-19T02:06:30;30.88;;;18.88;;
20727;SDS011;10525;50.154;8.198;2022-08-19T02:08:58;30.52;;;19.02;;
20727;SDS011;10525;50.154;8.198;2022-08-19T02:11:26;32.28;;;19.48;;
20727;SDS011;10525;50.154;8.198;2022-08-19T02:13:56;30.73;;;17.92;;
20727;SDS011;10525;50.154;8.198;2022-08-19T02:16:25;31.17;;;18.05;;
20727;SDS011;10525;50.154;8.198;2022-08-19T02:18:51;32.78;;;17.88;;
20727;SDS011;10525;50.154;8.198;2022-08-19T02:21:19;28.73;;;18.00;;
20727;SDS011;10525;50.154;8.198;2022-08-19T02:23:47;31.00;;;16.92;;
20727;SDS011;10525;50.154;8.198;2022-08-19T02:26:15;36.67;;;19.33;;
20727;SDS011;10525;50.154;8.198;2022-08-19T02:28:43;31.75;;;18.92;;
20727;SDS011;10525;50.154;8.198;2022-08-19T02:31:10;31.60;;;18.55;;
20727;SDS011;10525;50.154;8.198;2022-08-19T02:33:40;27.35;;;16.77;;
20727;SDS011;10525;50.154;8.198;2022-08-19T02:36:08;25.52;;;17.27;;
20727;SDS011;10525;50.154;8.198;2022-08-19T02:38:35;28.45;;;16.33;;
20727;SDS011;10525;50.154;8.198;2022-08-19T02:41:03;33.15;;;16.75;;
20727;SDS011;10525;50.154;8.198;2022-08-19T02:43:33;27.50;;;16.13;;
20727;SDS011;10525;50.154;8.198;2022-08-19T02:46:01;25.00;;;16.00;;
20727;SDS011;10525;50.154;8.198;2022-08-19T02:48:36;24.65;;;15.73;;
20727;SDS011;10525;50.154;8.198;2022-08-19T02:51:04;28.10;;;16.33;;
20727;SDS011;10525;50.154;8.198;2022-08-19T02:53:31;26.27;;;16.92;;
20727;SDS011;10525;50.154;8.198;2022-08-19T02:55:58;30.70;;;17.30;;
20727;SDS011;10525;50.154;8.198;2022-08-19T02:58:25;29.80;;;16.92;;
20727;SDS011;10525;50.154;8.198;2022-08-19T03:00:53;26.95;;;17.52;;
20727;SDS011;10525;50.154;8.198;2022-08-19T03:03:21;29.17;;;16.15;;
20727;SDS011;10525;50.154;8.198;2022-08-19T03:05:48;28.00;;;17.40;;
20727;SDS011;10525;50.154;8.198;2022-08-19T03:08:16;28.20;;;16.92;;
20727;SDS011;10525;50.154;8.198;2022-08-19T03:10:43;26.52;;;17.13;;
20727;SDS011;10525;50.154;8.198;2022-08-19T03:13:12;31.17;;;17.48;;
20727;SDS011;10525;50.154;8.198;2022-08-19T03:15:41;25.50;;;16.60;;
20727;SDS011;10525;50.154;8.198;2022-08-19T03:18:08;27.27;;;16.17;;
20727;SDS011;10525;50.154;8.198;2022-08-19T03:20:39;23.95;;;15.50;;
20727;SDS011;10525;50.154;8.198;2022-08-19T03:23:07;29.98;;;17.35;;
20727;SDS011;10525;50.154;8.198;2022-08-19T03:25:37;26.02;;;16.90;;
20727;SDS011;10525;50.154;8.198;2022-08-19T03:28:05;26.67;;;17.13;;
20727;SDS011;10525;50.154;8.198;2022-08-19T03:30:32;28.13;;;17.23;;
20727;SDS011;10525;50.154;8.198;2022-08-19T03:32:59;30.55;;;18.02;;
20727;SDS011;10525;50.154;8.198;2022-08-19T03:35:26;27.23;;;16.42;;
20727;SDS011;10525;50.154;8.198;2022-08-19T03:37:53;33.67;;;17.17;;
20727;SDS011;10525;50.154;8.198;2022-08-19T03:40:21;30.83;;;18.17;;
20727;SDS011;10525;50.154;8.198;2022-08-19T03:42:49;27.35;;;17.15;;
20727;SDS011;10525;50.154;8.198;2022-08-19T03:45:16;31.27;;;17.42;;
20727;SDS011;10525;50.154;8.198;2022-08-19T03:47:43;31.67;;;18.55;;
20727;SDS011;10525;50.154;8.198;2022-08-19T03:50:10;28.60;;;17.48;;
20727;SDS011;10525;50.154;8.198;2022-08-19T03:52:37;33.70;;;18.25;;
20727;SDS011;10525;50.154;8.198;2022-08-19T03:55:04;25.38;;;16.45;;
20727;SDS011;10525;50.154;8.198;2022-08-19T03:57:32;27.70;;;17.33;;
20727;SDS011;10525;50.154;8.198;2022-08-19T04:00:01;29.25;;;17.75;;
20727;SDS011;10525;50.154;8.198;2022-08-19T04:02:30;26.20;;;17.05;;
20727;SDS011;10525;50.154;8.198;2022-08-19T04:04:57;29.27;;;17.08;;
20727;SDS011;10525;50.154;8.198;2022-08-19T04:07:24;31.33;;;18.38;;
20727;SDS011;10525;50.154;8.198;2022-08-19T04:09:50;29.08;;;17.58;;
20727;SDS011;10525;50.154;8.198;2022-08-19T04:12:18;30.15;;;17.75;;
20727;SDS011;10525;50.154;8.198;2022-08-19T04:14:45;27.23;;;17.38;;
20727;SDS011;10525;50.154;8.198;2022-08-19T04:17:14;29.95;;;18.00;;
20727;SDS011;10525;50.154;8.198;2022-08-19T04:19:40;25.35;;;17.08;;
20727;SDS011;10525;50.154;8.198;2022-08-19T04:22:08;29.20;;;17.10;;
20727;SDS011;10525;50.154;8.198;2022-08-19T04:24:36;30.25;;;17.63;;
20727;SDS011;10525;50.154;8.198;2022-08-19T04:27:03;29.50;;;17.92;;
20727;SDS011;10525;50.154;8.198;2022-08-19T04:29:31;29.90;;;18.52;;
20727;SDS011;10525;50.154;8.198;2022-08-19T04:31:59;29.33;;;17.55;;
20727;SDS011;10525;50.154;8.198;2022-08-19T04:34:28;29.45;;;17.90;;
20727;SDS011;10525;50.154;8.198;2022-08-19T04:36:55;27.13;;;17.70;;
20727;SDS011;10525;50.154;8.198;2022-08-19T04:39:24;32.25;;;18.00;;
20727;SDS011;10525;50.154;8.198;2022-08-19T04:42:14;32.00;;;18.58;;
20727;SDS011;10525;50.154;8.198;2022-08-19T04:45:02;33.03;;;18.05;;
20727;SDS011;10525;50.154;8.198;2022-08-19T04:47:29;33.13;;;18.55;;
20727;SDS011;10525;50.154;8.198;2022-08-19T04:49:57;29.83;;;17.38;;
20727;SDS011;10525;50.154;8.198;2022-08-19T04:52:24;32.50;;;19.20;;
20727;SDS011;10525;50.154;8.198;2022-08-19T04:54:51;34.38;;;18.92;;
20727;SDS011;10525;50.154;8.198;2022-08-19T04:57:20;30.08;;;19.00;;
20727;SDS011;10525;50.154;8.198;2022-08-19T04:59:47;31.65;;;17.88;;
20727;SDS011;10525;50.154;8.198;2022-08-19T05:02:14;30.52;;;18.60;;
20727;SDS011;10525;50.154;8.198;2022-08-19T05:04:41;33.10;;;19.20;;
20727;SDS011;10525;50.154;8.198;2022-08-19T05:07:09;31.45;;;20.05;;
20727;SDS011;10525;50.154;8.198;2022-08-19T05:09:36;31.10;;;18.90;;
20727;SDS011;10525;50.154;8.198;2022-08-19T05:12:03;33.40;;;19.88;;
20727;SDS011;10525;50.154;8.198;2022-08-19T05:14:31;32.97;;;18.98;;
20727;SDS011;10525;50.154;8.198;2022-08-19T05:16:57;27.30;;;18.13;;
20727;SDS011;10525;50.154;8.198;2022-08-19T05:19:24;30.13;;;17.60;;
20727;SDS011;10525;50.154;8.198;2022-08-19T05:22:10;31.92;;;17.45;;
20727;SDS011;10525;50.154;8.198;2022-08-19T05:24:54;28.52;;;17.35;;
20727;SDS011;10525;50.154;8.198;2022-08-19T05:27:20;31.77;;;17.23;;
20727;SDS011;10525;50.154;8.198;2022-08-19T05:29:47;31.42;;;17.15;;
20727;SDS011;10525;50.154;8.198;2022-08-19T05:32:14;30.70;;;17.58;;
20727;SDS011;10525;50.154;8.198;2022-08-19T05:34:41;27.10;;;17.52;;
20727;SDS011;10525;50.154;8.198;2022-08-19T05:37:07;27.00;;;16.67;;
20727;SDS011;10525;50.154;8.198;2022-08-19T05:39:36;29.30;;;17.92;;
20727;SDS011;10525;50.154;8.198;2022-08-19T05:42:04;27.35;;;16.48;;
20727;SDS011;10525;50.154;8.198;2022-08-19T05:44:33;25.13;;;14.98;;
20727;SDS011;10525;50.154;8.198;2022-08-19T05:47:02;24.70;;;16.13;;
20727;SDS011;10525;50.154;8.198;2022-08-19T05:49:31;25.58;;;16.05;;
20727;SDS011;10525;50.154;8.198;2022-08-19T05:51:58;24.35;;;15.90;;
20727;SDS011;10525;50.154;8.198;2022-08-19T05:54:30;28.70;;;16.05;;
20727;SDS011;10525;50.154;8.198;2022-08-19T05:56:56;23.98;;;15.45;;
20727;SDS011;10525;50.154;8.198;2022-08-19T05:59:23;26.70;;;15.95;;
20727;SDS011;10525;50.154;8.198;2022-08-19T06:01:50;26.52;;;17.23;;
20727;SDS011;10525;50.154;8.198;2022-08-19T06:04:20;28.20;;;17.30;;
20727;SDS011;10525;50.154;8.198;2022-08-19T06:06:48;26.55;;;15.77;;
20727;SDS011;10525;50.154;8.198;2022-08-19T06:09:16;30.35;;;15.13;;
20727;SDS011;10525;50.154;8.198;2022-08-19T06:11:46;22.23;;;15.60;;
20727;SDS011;10525;50.154;8.198;2022-08-19T06:14:15;21.33;;;14.77;;
20727;SDS011;10525;50.154;8.198;2022-08-19T06:16:46;26.33;;;15.45;;
20727;SDS011;10525;50.154;8.198;2022-08-19T06:19:13;24.40;;;15.52;;
20727;SDS011;10525;50.154;8.198;2022-08-19T06:21:43;21.80;;;14.55;;
20727;SDS011;10525;50.154;8.198;2022-08-19T06:24:13;22.77;;;15.07;;
20727;SDS011;10525;50.154;8.198;2022-08-19T06:26:43;24.48;;;14.85;;
20727;SDS011;10525;50.154;8.198;2022-08-19T06:29:14;23.55;;;14.32;;
20727;SDS011;10525;50.154;8.198;2022-08-19T06:31:42;19.63;;;13.70;;
20727;SDS011;10525;50.154;8.198;2022-08-19T06:34:10;23.70;;;13.48;;
20727;SDS011;10525;50.154;8.198;2022-08-19T06:36:39;18.88;;;13.10;;
20727;SDS011;10525;50.154;8.198;2022-08-19T06:39:10;25.27;;;13.15;;
20727;SDS011;10525;50.154;8.198;2022-08-19T06:41:39;15.02;;;11.38;;
20727;SDS011;10525;50.154;8.198;2022-08-19T06:44:08;18.85;;;11.93;;
20727;SDS011;10525;50.154;8.198;2022-08-19T06:46:36;16.83;;;11.57;;
20727;SDS011;10525;50.154;8.198;2022-08-19T06:49:04;18.20;;;12.35;;
20727;SDS011;10525;50.154;8.198;2022-08-19T06:51:33;18.00;;;11.57;;
20727;SDS011;10525;50.154;8.198;2022-08-19T06:54:00;16.75;;;11.65;;
20727;SDS011;10525;50.154;8.198;2022-08-19T06:56:28;14.75;;;10.98;;
20727;SDS011;10525;50.154;8.198;2022-08-19T06:58:59;15.75;;;10.85;;
20727;SDS011;10525;50.154;8.198;2022-08-19T07:01:26;18.55;;;11.77;;
20727;SDS011;10525;50.154;8.198;2022-08-19T07:03:54;16.92;;;10.73;;
20727;SDS011;10525;50.154;8.198;2022-08-19T07:06:21;19.52;;;11.07;;
20727;SDS011;10525;50.154;8.198;2022-08-19T07:08:48;17.25;;;10.75;;
20727;SDS011;10525;50.154;8.198;2022-08-19T07:11:16;14.30;;;11.18;;
20727;SDS011;10525;50.154;8.198;2022-08-19T07:13:44;13.13;;;10.57;;
20727;SDS011;10525;50.154;8.198;2022-08-19T07:16:14;18.77;;;11.68;;
20727;SDS011;10525;50.154;8.198;2022-08-19T07:18:44;20.58;;;11.93;;
20727;SDS011;10525;50.154;8.198;2022-08-19T07:21:13;22.48;;;12.23;;
20727;SDS011;10525;50.154;8.198;2022-08-19T07:23:41;18.10;;;12.27;;
20727;SDS011;10525;50.154;8.198;2022-08-19T07:26:10;19.75;;;12.57;;
20727;SDS011;10525;50.154;8.198;2022-08-19T07:28:39;16.55;;;11.40;;
20727;SDS011;10525;50.154;8.198;2022-08-19T07:31:05;18.40;;;11.65;;
20727;SDS011;10525;50.154;8.198;2022-08-19T07:33:32;13.57;;;10.73;;
20727;SDS011;10525;50.154;8.198;2022-08-19T07:36:01;14.57;;;10.55;;
20727;SDS011;10525;50.154;8.198;2022-08-19T07:38:30;15.50;;;11.07;;
20727;SDS011;10525;50.154;8.198;2022-08-19T07:40:57;17.73;;;12.65;;
20727;SDS011;10525;50.154;8.198;2022-08-19T07:43:24;18.30;;;11.43;;
20727;SDS011;10525;50.154;8.198;2022-08-19T07:45:51;20.33;;;13.18;;
20727;SDS011;10525;50.154;8.198;2022-08-19T07:48:21;21.73;;;13.35;;
20727;SDS011;10525;50.154;8.198;2022-08-19T07:50:50;18.40;;;12.68;;
20727;SDS011;10525;50.154;8.198;2022-08-19T07:53:19;22.65;;;13.43;;
20727;SDS011;10525;50.154;8.198;2022-08-19T07:55:47;22.45;;;13.75;;
20727;SDS011;10525;50.154;8.198;2022-08-19T07:58:15;26.00;;;14.88;;
20727;SDS011;10525;50.154;8.198;2022-08-19T08:00:44;21.23;;;14.60;;
20727;SDS011;10525;50.154;8.198;2022-08-19T08:03:13;24.40;;;14.75;;
20727;SDS011;10525;50.154;8.198;2022-08-19T08:05:42;20.70;;;14.15;;
20727;SDS011;10525;50.154;8.198;2022-08-19T08:08:27;26.52;;;15.20;;
20727;SDS011;10525;50.154;8.198;2022-08-19T08:11:13;29.15;;;16.38;;
20727;SDS011;10525;50.154;8.198;2022-08-19T08:13:42;24.63;;;15.18;;
20727;SDS011;10525;50.154;8.198;2022-08-19T08:16:09;25.90;;;14.70;;
20727;SDS011;10525;50.154;8.198;2022-08-19T08:18:35;23.08;;;14.60;;
20727;SDS011;10525;50.154;8.198;2022-08-19T08:21:07;19.25;;;13.18;;
20727;SDS011;10525;50.154;8.198;2022-08-19T08:23:34;25.13;;;15.63;;
20727;SDS011;10525;50.154;8.198;2022-08-19T08:26:01;21.83;;;14.85;;
20727;SDS011;10525;50.154;8.198;2022-08-19T08:28:30;26.52;;;15.80;;
20727;SDS011;10525;50.154;8.198;2022-08-19T08:30:57;22.02;;;15.00;;
20727;SDS011;10525;50.154;8.198;2022-08-19T08:33:25;19.15;;;12.65;;
20727;SDS011;10525;50.154;8.198;2022-08-19T08:35:53;21.90;;;14.13;;
20727;SDS011;10525;50.154;8.198;2022-08-19T08:38:20;19.98;;;13.70;;
20727;SDS011;10525;50.154;8.198;2022-08-19T08:40:47;23.35;;;16.13;;
20727;SDS011;10525;50.154;8.198;2022-08-19T08:43:21;27.33;;;16.38;;
20727;SDS011;10525;50.154;8.198;2022-08-19T08:45:54;25.38;;;17.05;;
20727;SDS011;10525;50.154;8.198;2022-08-19T08:48:30;25.02;;;16.60;;
20727;SDS011;10525;50.154;8.198;2022-08-19T08:51:03;24.73;;;17.45;;
20727;SDS011;10525;50.154;8.198;2022-08-19T08:53:35;28.45;;;17.95;;
20727;SDS011;10525;50.154;8.198;2022-08-19T08:56:03;28.13;;;18.20;;
20727;SDS011;10525;50.154;8.198;2022-08-19T08:58:39;31.20;;;18.70;;
20727;SDS011;10525;50.154;8.198;2022-08-19T09:01:13;32.65;;;21.33;;
20727;SDS011;10525;50.154;8.198;2022-08-19T09:03:40;30.55;;;19.55;;
20727;SDS011;10525;50.154;8.198;2022-08-19T09:06:11;30.08;;;20.98;;
20727;SDS011;10525;50.154;8.198;2022-08-19T09:08:45;28.17;;;18.98;;
20727;SDS011;10525;50.154;8.198;2022-08-19T09:11:32;35.03;;;20.58;;
20727;SDS011;10525;50.154;8.198;2022-08-19T09:14:12;36.38;;;21.90;;
20727;SDS011;10525;50.154;8.198;2022-08-19T09:16:45;37.33;;;22.45;;
20727;SDS011;10525;50.154;8.198;2022-08-19T09:19:13;31.33;;;21.13;;
20727;SDS011;10525;50.154;8.198;2022-08-19T09:21:42;27.73;;;19.90;;
20727;SDS011;10525;50.154;8.198;2022-08-19T09:24:10;30.70;;;20.55;;
20727;SDS011;10525;50.154;8.198;2022-08-19T09:26:37;29.00;;;19.92;;
20727;SDS011;10525;50.154;8.198;2022-08-19T09:29:04;30.52;;;20.83;;
20727;SDS011;10525;50.154;8.198;2022-08-19T09:31:32;29.17;;;19.23;;
20727;SDS011;10525;50.154;8.198;2022-08-19T09:34:00;26.83;;;18.65;;
20727;SDS011;10525;50.154;8.198;2022-08-19T09:36:30;32.65;;;19.50;;
20727;SDS011;10525;50.154;8.198;2022-08-19T09:38:58;27.83;;;19.48;;
20727;SDS011;10525;50.154;8.198;2022-08-19T09:41:26;27.30;;;18.50;;
20727;SDS011;10525;50.154;8.198;2022-08-19T09:43:53;23.10;;;15.35;;
20727;SDS011;10525;50.154;8.198;2022-08-19T09:46:21;19.00;;;13.55;;
20727;SDS011;10525;50.154;8.198;2022-08-19T09:48:49;18.48;;;12.13;;
20727;SDS011;10525;50.154;8.198;2022-08-19T09:51:20;21.70;;;13.10;;
20727;SDS011;10525;50.154;8.198;2022-08-19T09:53:48;19.17;;;13.25;;
20727;SDS011;10525;50.154;8.198;2022-08-19T09:56:16;17.33;;;13.50;;
20727;SDS011;10525;50.154;8.198;2022-08-19T09:58:44;15.93;;;12.05;;
20727;SDS011;10525;50.154;8.198;2022-08-19T10:01:15;15.70;;;13.32;;
20727;SDS011;10525;50.154;8.198;2022-08-19T10:03:43;15.32;;;12.07;;
20727;SDS011;10525;50.154;8.198;2022-08-19T10:06:12;10.90;;;9.65;;
20727;SDS011;10525;50.154;8.198;2022-08-19T10:08:40;11.63;;;9.57;;
20727;SDS011;10525;50.154;8.198;2022-08-19T10:11:07;13.30;;;9.77;;
20727;SDS011;10525;50.154;8.198;2022-08-19T10:13:35;19.92;;;11.63;;
20727;SDS011;10525;50.154;8.198;2022-08-19T10:16:04;12.73;;;10.70;;
20727;SDS011;10525;50.154;8.198;2022-08-19T10:18:33;10.07;;;8.48;;
20727;SDS011;10525;50.154;8.198;2022-08-19T10:21:04;17.17;;;10.23;;
20727;SDS011;10525;50.154;8.198;2022-08-19T10:23:34;12.95;;;9.45;;
20727;SDS011;10525;50.154;8.198;2022-08-19T10:26:02;12.63;;;9.10;;
20727;SDS011;10525;50.154;8.198;2022-08-19T10:28:30;10.93;;;8.52;;
20727;SDS011;10525;50.154;8.198;2022-08-19T10:30:58;7.78;;;7.07;;
20727;SDS011;10525;50.154;8.198;2022-08-19T10:33:24;10.65;;;8.70;;
20727;SDS011;10525;50.154;8.198;2022-08-19T10:35:58;13.65;;;10.40;;
20727;SDS011;10525;50.154;8.198;2022-08-19T10:38:25;10.80;;;8.95;;
20727;SDS011;10525;50.154;8.198;2022-08-19T10:40:53;11.15;;;9.88;;
20727;SDS011;10525;50.154;8.198;2022-08-19T10:43:21;12.15;;;9.52;;
20727;SDS011;10525;50.154;8.198;2022-08-19T10:45:51;9.02;;;8.18;;
20727;SDS011;10525;50.154;8.198;2022-08-19T10:48:19;8.45;;;7.68;;
20727;SDS011;10525;50.154;8.198;2022-08-19T10:50:46;9.50;;;8.60;;
20727;SDS011;10525;50.154;8.198;2022-08-19T10:53:30;10.55;;;7.40;;
20727;SDS011;10525;50.154;8.198;2022-08-19T10:55:57;8.05;;;7.35;;
20727;SDS011;10525;50.154;8.198;2022-08-19T10:58:42;7.07;;;6.57;;
20727;SDS011;10525;50.154;8.198;2022-08-19T11:01:09;8.13;;;7.25;;
20727;SDS011;10525;50.154;8.198;2022-08-19T11:03:36;6.40;;;5.97;;
20727;SDS011;10525;50.154;8.198;2022-08-19T11:06:04;7.22;;;6.60;;
20727;SDS011;10525;50.154;8.198;2022-08-19T11:08:33;7.15;;;6.55;;
20727;SDS011;10525;50.154;8.198;2022-08-19T11:11:03;6.10;;;5.70;;
20727;SDS011;10525;50.154;8.198;2022-08-19T11:13:32;6.22;;;5.70;;
20727;SDS011;10525;50.154;8.198;2022-08-19T11:16:04;6.88;;;6.30;;
20727;SDS011;10525;50.154;8.198;2022-08-19T11:18:34;6.07;;;5.60;;
20727;SDS011;10525;50.154;8.198;2022-08-19T11:21:09;6.18;;;5.68;;
20727;SDS011;10525;50.154;8.198;2022-08-19T11:23:37;7.65;;;6.90;;
20727;SDS011;10525;50.154;8.198;2022-08-19T11:26:04;6.55;;;5.97;;
20727;SDS011;10525;50.154;8.198;2022-08-19T11:28:31;6.07;;;5.57;;
20727;SDS011;10525;50.154;8.198;2022-08-19T11:30:58;6.00;;;5.50;;
20727;SDS011;10525;50.154;8.198;2022-08-19T11:33:26;5.43;;;5.00;;
20727;SDS011;10525;50.154;8.198;2022-08-19T11:35:52;5.28;;;4.97;;
20727;SDS011;10525;50.154;8.198;2022-08-19T11:38:19;4.95;;;4.53;;
20727;SDS011;10525;50.154;8.198;2022-08-19T11:40:53;4.82;;;4.57;;
20727;SDS011;10525;50.154;8.198;2022-08-19T11:43:20;5.45;;;5.15;;
20727;SDS011;10525;50.154;8.198;2022-08-19T11:45:47;6.18;;;5.80;;
20727;SDS011;10525;50.154;8.198;2022-08-19T11:48:14;4.80;;;4.50;;
20727;SDS011;10525;50.154;8.198;2022-08-19T11:50:42;5.50;;;5.20;;
20727;SDS011;10525;50.154;8.198;2022-08-19T11:53:09;5.68;;;4.65;;
20727;SDS011;10525;50.154;8.198;2022-08-19T11:55:36;4.20;;;4.10;;
20727;SDS011;10525;50.154;8.198;2022-08-19T11:58:03;6.30;;;4.38;;
20727;SDS011;10525;50.154;8.198;2022-08-19T12:00:31;5.57;;;4.45;;
20727;SDS011;10525;50.154;8.198;2022-08-19T12:02:59;4.90;;;4.50;;
20727;SDS011;10525;50.154;8.198;2022-08-19T12:05:25;4.63;;;4.40;;
20727;SDS011;10525;50.154;8.198;2022-08-19T12:07:53;5.60;;;5.20;;
20727;SDS011;10525;50.154;8.198;2022-08-19T12:10:21;5.20;;;4.88;;
20727;SDS011;10525;50.154;8.198;2022-08-19T12:12:48;6.35;;;5.85;;
20727;SDS011;10525;50.154;8.198;2022-08-19T12:15:14;4.57;;;4.38;;
20727;SDS011;10525;50.154;8.198;2022-08-19T12:17:41;4.68;;;4.28;;
20727;SDS011;10525;50.154;8.198;2022-08-19T12:20:09;5.55;;;5.05;;
20727;SDS011;10525;50.154;8.198;2022-08-19T12:22:38;4.47;;;4.18;;
20727;SDS011;10525;50.154;8.198;2022-08-19T12:25:07;5.95;;;4.68;;
20727;SDS011;10525;50.154;8.198;2022-08-19T12:27:35;4.40;;;4.07;;
20727;SDS011;10525;50.154;8.198;2022-08-19T12:30:03;3.95;;;3.75;;
20727;SDS011;10525;50.154;8.198;2022-08-19T12:32:32;5.47;;;3.78;;
20727;SDS011;10525;50.154;8.198;2022-08-19T12:34:59;4.47;;;4.13;;
20727;SDS011;10525;50.154;8.198;2022-08-19T12:37:26;4.15;;;3.70;;
20727;SDS011;10525;50.154;8.198;2022-08-19T12:39:53;4.30;;;4.10;;
20727;SDS011;10525;50.154;8.198;2022-08-19T12:42:21;3.72;;;3.63;;
20727;SDS011;10525;50.154;8.198;2022-08-19T12:44:47;3.63;;;3.42;;
20727;SDS011;10525;50.154;8.198;2022-08-19T12:47:14;3.80;;;3.50;;
20727;SDS011;10525;50.154;8.198;2022-08-19T12:49:41;4.30;;;4.10;;
20727;SDS011;10525;50.154;8.198;2022-08-19T12:52:09;4.22;;;3.95;;
20727;SDS011;10525;50.154;8.198;2022-08-19T12:54:36;3.60;;;3.42;;
20727;SDS011;10525;50.154;8.198;2022-08-19T12:57:05;4.63;;;3.60;;
20727;SDS011;10525;50.154;8.198;2022-08-19T12:59:33;4.40;;;4.13;;
20727;SDS011;10525;50.154;8.198;2022-08-19T13:02:01;4.60;;;4.30;;
20727;SDS011;10525;50.154;8.198;2022-08-19T13:04:30;4.60;;;4.30;;
20727;SDS011;10525;50.154;8.198;2022-08-19T13:06:56;4.70;;;4.28;;
20727;SDS011;10525;50.154;8.198;2022-08-19T13:09:24;5.38;;;4.75;;
20727;SDS011;10525;50.154;8.198;2022-08-19T13:11:51;11.13;;;5.05;;
20727;SDS011;10525;50.154;8.198;2022-08-19T13:14:17;6.05;;;5.68;;
20727;SDS011;10525;50.154;8.198;2022-08-19T13:16:45;5.60;;;5.30;;
20727;SDS011;10525;50.154;8.198;2022-08-19T13:19:12;5.35;;;4.93;;
20727;SDS011;10525;50.154;8.198;2022-08-19T13:21:39;6.70;;;5.65;;
20727;SDS011;10525;50.154;8.198;2022-08-19T13:24:05;7.45;;;5.20;;
20727;SDS011;10525;50.154;8.198;2022-08-19T13:26:32;6.53;;;6.13;;
20727;SDS011;10525;50.154;8.198;2022-08-19T13:28:59;7.82;;;6.72;;
20727;SDS011;10525;50.154;8.198;2022-08-19T13:31:43;6.68;;;6.15;;
20727;SDS011;10525;50.154;8.198;2022-08-19T13:34:29;7.25;;;5.57;;
20727;SDS011;10525;50.154;8.198;2022-08-19T13:36:58;6.70;;;6.22;;
20727;SDS011;10525;50.154;8.198;2022-08-19T13:39:28;6.78;;;6.20;;
20727;SDS011;10525;50.154;8.198;2022-08-19T13:41:55;6.93;;;6.32;;
20727;SDS011;10525;50.154;8.198;2022-08-19T13:44:22;6.70;;;6.25;;
20727;SDS011;10525;50.154;8.198;2022-08-19T13:46:49;6.80;;;6.13;;
20727;SDS011;10525;50.154;8.198;2022-08-19T13:49:17;6.95;;;6.30;;
20727;SDS011;10525;50.154;8.198;2022-08-19T13:51:46;7.40;;;5.50;;
20727;SDS011;10525;50.154;8.198;2022-08-19T13:54:13;6.00;;;5.50;;
20727;SDS011;10525;50.154;8.198;2022-08-19T13:56:40;6.18;;;5.22;;
20727;SDS011;10525;50.154;8.198;2022-08-19T13:59:07;6.07;;;4.70;;
20727;SDS011;10525;50.154;8.198;2022-08-19T14:01:34;5.85;;;5.28;;
20727;SDS011;10525;50.154;8.198;2022-08-19T14:04:01;6.10;;;5.50;;
20727;SDS011;10525;50.154;8.198;2022-08-19T14:06:28;5.40;;;5.07;;
20727;SDS011;10525;50.154;8.198;2022-08-19T14:08:56;5.25;;;5.05;;
20727;SDS011;10525;50.154;8.198;2022-08-19T14:11:23;6.28;;;5.85;;
20727;SDS011;10525;50.154;8.198;2022-08-19T14:13:50;5.57;;;5.18;;
20727;SDS011;10525;50.154;8.198;2022-08-19T14:16:17;5.60;;;5.20;;
20727;SDS011;10525;50.154;8.198;2022-08-19T14:18:43;5.60;;;5.30;;
20727;SDS011;10525;50.154;8.198;2022-08-19T14:21:14;6.00;;;5.47;;
20727;SDS011;10525;50.154;8.198;2022-08-19T14:23:43;5.53;;;5.13;;
20727;SDS011;10525;50.154;8.198;2022-08-19T14:26:12;5.70;;;5.30;;
20727;SDS011;10525;50.154;8.198;2022-08-19T14:28:41;5.45;;;5.07;;
20727;SDS011;10525;50.154;8.198;2022-08-19T14:31:09;5.13;;;4.72;;
20727;SDS011;10525;50.154;8.198;2022-08-19T14:33:36;4.68;;;4.45;;
20727;SDS011;10525;50.154;8.198;2022-08-19T14:36:03;11.07;;;5.18;;